sensor_id;sensor_type;location;lat;lon;timestamp;P1;P2;P0
49708;PMS5003;35601;55.902;13.606;2024-01-11T00:02:06;14;10;
49708;PMS5003;35601;55.902;13.606;2024-01-11T00:04:32;14;10;
49708;PMS5003;35601;55.902;13.606;2024-01-11T00:06:57;12;10;
49708;PMS5003;35601;55.902;13.606;2024-01-11T00:09:22;8;8;
49708;PMS5003;35601;55.902;13.606;2024-01-11T00:11:48;15;11;
49708;PMS5003;35601;55.902;13.606;2024-01-11T00:14:13;10;10;
49708;PMS5003;35601;55.902;13.606;2024-01-11T00:16:39;16;13;
49708;PMS5003;35601;55.902;13.606;2024-01-11T00:19:04;12;9;
49708;PMS5003;35601;55.902;13.606;2024-01-11T00:21:29;10;8;
49708;PMS5003;35601;55.902;13.606;2024-01-11T00:23:54;15;15;
49708;PMS5003;35601;55.902;13.606;2024-01-11T00:26:20;17;10;
49708;PMS5003;35601;55.902;13.606;2024-01-11T00:28:45;12;12;
49708;PMS5003;35601;55.902;13.606;2024-01-11T00:31:11;18;12;
49708;PMS5003;35601;55.902;13.606;2024-01-11T00:33:37;19;15;
49708;PMS5003;35601;55.902;13.606;2024-01-11T00:36:03;15;15;
49708;PMS5003;35601;55.902;13.606;2024-01-11T00:38:27;21;18;
49708;PMS5003;35601;55.902;13.606;2024-01-11T00:40:52;17;14;
49708;PMS5003;35601;55.902;13.606;2024-01-11T00:43:18;26;19;
49708;PMS5003;35601;55.902;13.606;2024-01-11T00:45:43;21;17;
49708;PMS5003;35601;55.902;13.606;2024-01-11T00:48:08;30;24;
49708;PMS5003;35601;55.902;13.606;2024-01-11T00:50:34;35;25;
49708;PMS5003;35601;55.902;13.606;2024-01-11T00:52:59;25;21;
49708;PMS5003;35601;55.902;13.606;2024-01-11T00:55:25;30;23;
49708;PMS5003;35601;55.902;13.606;2024-01-11T00:57:50;31;24;
49708;PMS5003;35601;55.902;13.606;2024-01-11T01:00:16;25;19;
49708;PMS5003;35601;55.902;13.606;2024-01-11T01:02:42;32;23;
49708;PMS5003;35601;55.902;13.606;2024-01-11T01:05:08;19;19;
49708;PMS5003;35601;55.902;13.606;2024-01-11T01:07:34;42;31;
49708;PMS5003;35601;55.902;13.606;2024-01-11T01:09:58;32;24;
49708;PMS5003;35601;55.902;13.606;2024-01-11T01:12:24;31;26;
49708;PMS5003;35601;55.902;13.606;2024-01-11T01:14:49;29;26;
49708;PMS5003;35601;55.902;13.606;2024-01-11T01:17:15;42;29;
49708;PMS5003;35601;55.902;13.606;2024-01-11T01:19:41;37;29;
49708;PMS5003;35601;55.902;13.606;2024-01-11T01:22:06;30;26;
49708;PMS5003;35601;55.902;13.606;2024-01-11T01:24:31;30;23;
49708;PMS5003;35601;55.902;13.606;2024-01-11T01:26:57;37;30;
49708;PMS5003;35601;55.902;13.606;2024-01-11T01:29:22;40;33;
49708;PMS5003;35601;55.902;13.606;2024-01-11T01:31:48;33;25;
49708;PMS5003;35601;55.902;13.606;2024-01-11T01:34:13;39;31;
49708;PMS5003;35601;55.902;13.606;2024-01-11T01:36:39;33;26;
49708;PMS5003;35601;55.902;13.606;2024-01-11T01:39:05;35;28;
49708;PMS5003;35601;55.902;13.606;2024-01-11T01:41:31;29;26;
49708;PMS5003;35601;55.902;13.606;2024-01-11T01:43:56;42;26;
49708;PMS5003;35601;55.902;13.606;2024-01-11T01:46:22;38;25;
49708;PMS5003;35601;55.902;13.606;2024-01-11T01:48:47;36;29;
49708;PMS5003;35601;55.902;13.606;2024-01-11T01:51:13;25;23;
49708;PMS5003;35601;55.902;13.606;2024-01-11T01:53:38;33;26;
49708;PMS5003;35601;55.902;13.606;2024-01-11T01:56:04;32;24;
49708;PMS5003;35601;55.902;13.606;2024-01-11T01:58:29;23;19;
49708;PMS5003;35601;55.902;13.606;2024-01-11T02:00:54;23;23;
49708;PMS5003;35601;55.902;13.606;2024-01-11T02:03:20;25;25;
49708;PMS5003;35601;55.902;13.606;2024-01-11T02:05:45;34;24;
49708;PMS5003;35601;55.902;13.606;2024-01-11T02:08:12;23;20;
49708;PMS5003;35601;55.902;13.606;2024-01-11T02:10:36;29;22;
49708;PMS5003;35601;55.902;13.606;2024-01-11T02:13:02;30;24;
49708;PMS5003;35601;55.902;13.606;2024-01-11T02:15:28;27;19;
49708;PMS5003;35601;55.902;13.606;2024-01-11T02:17:53;25;17;
49708;PMS5003;35601;55.902;13.606;2024-01-11T02:20:18;19;15;
49708;PMS5003;35601;55.902;13.606;2024-01-11T02:22:46;24;19;
49708;PMS5003;35601;55.902;13.606;2024-01-11T02:25:09;24;17;
49708;PMS5003;35601;55.902;13.606;2024-01-11T02:30:00;25;20;
49708;PMS5003;35601;55.902;13.606;2024-01-11T02:32:26;29;23;
49708;PMS5003;35601;55.902;13.606;2024-01-11T02:34:51;25;19;
49708;PMS5003;35601;55.902;13.606;2024-01-11T02:37:17;24;20;
49708;PMS5003;35601;55.902;13.606;2024-01-11T02:39:42;23;17;
49708;PMS5003;35601;55.902;13.606;2024-01-11T02:42:07;27;20;
49708;PMS5003;35601;55.902;13.606;2024-01-11T02:44:32;18;15;
49708;PMS5003;35601;55.902;13.606;2024-01-11T02:46:58;25;17;
49708;PMS5003;35601;55.902;13.606;2024-01-11T02:49:24;23;20;
49708;PMS5003;35601;55.902;13.606;2024-01-11T02:51:49;22;18;
49708;PMS5003;35601;55.902;13.606;2024-01-11T02:54:14;20;15;
49708;PMS5003;35601;55.902;13.606;2024-01-11T02:56:40;25;19;
49708;PMS5003;35601;55.902;13.606;2024-01-11T02:59:05;17;16;
49708;PMS5003;35601;55.902;13.606;2024-01-11T03:01:30;15;13;
49708;PMS5003;35601;55.902;13.606;2024-01-11T03:03:55;19;17;
49708;PMS5003;35601;55.902;13.606;2024-01-11T03:06:21;13;13;
49708;PMS5003;35601;55.902;13.606;2024-01-11T03:08:46;20;15;
49708;PMS5003;35601;55.902;13.606;2024-01-11T03:11:11;24;16;
49708;PMS5003;35601;55.902;13.606;2024-01-11T03:13:36;18;15;
49708;PMS5003;35601;55.902;13.606;2024-01-11T03:16:02;22;18;
49708;PMS5003;35601;55.902;13.606;2024-01-11T03:18:27;24;18;
49708;PMS5003;35601;55.902;13.606;2024-01-11T03:20:52;19;15;
49708;PMS5003;35601;55.902;13.606;2024-01-11T03:23:17;18;16;
49708;PMS5003;35601;55.902;13.606;2024-01-11T03:25:43;20;16;
49708;PMS5003;35601;55.902;13.606;2024-01-11T03:28:08;17;15;
49708;PMS5003;35601;55.902;13.606;2024-01-11T03:30:34;17;12;
49708;PMS5003;35601;55.902;13.606;2024-01-11T03:32:59;18;12;
49708;PMS5003;35601;55.902;13.606;2024-01-11T03:35:24;17;13;
49708;PMS5003;35601;55.902;13.606;2024-01-11T03:37:49;18;11;
49708;PMS5003;35601;55.902;13.606;2024-01-11T03:40:15;10;10;
49708;PMS5003;35601;55.902;13.606;2024-01-11T03:42:40;20;12;
49708;PMS5003;35601;55.902;13.606;2024-01-11T03:45:05;13;12;
49708;PMS5003;35601;55.902;13.606;2024-01-11T03:47:30;15;15;
49708;PMS5003;35601;55.902;13.606;2024-01-11T03:49:55;15;11;
49708;PMS5003;35601;55.902;13.606;2024-01-11T03:52:21;22;12;
49708;PMS5003;35601;55.902;13.606;2024-01-11T03:54:46;11;10;
49708;PMS5003;35601;55.902;13.606;2024-01-11T03:57:11;20;13;
49708;PMS5003;35601;55.902;13.606;2024-01-11T03:59:37;12;10;
49708;PMS5003;35601;55.902;13.606;2024-01-11T04:02:02;12;11;
49708;PMS5003;35601;55.902;13.606;2024-01-11T04:04:28;15;12;
49708;PMS5003;35601;55.902;13.606;2024-01-11T04:06:53;12;12;
49708;PMS5003;35601;55.902;13.606;2024-01-11T04:09:18;12;8;
49708;PMS5003;35601;55.902;13.606;2024-01-11T04:11:44;15;12;
49708;PMS5003;35601;55.902;13.606;2024-01-11T04:14:09;14;10;
49708;PMS5003;35601;55.902;13.606;2024-01-11T04:16:39;19;16;
49708;PMS5003;35601;55.902;13.606;2024-01-11T04:19:00;15;12;
49708;PMS5003;35601;55.902;13.606;2024-01-11T04:21:25;17;12;
49708;PMS5003;35601;55.902;13.606;2024-01-11T04:23:50;14;11;
49708;PMS5003;35601;55.902;13.606;2024-01-11T04:26:16;16;12;
49708;PMS5003;35601;55.902;13.606;2024-01-11T04:28:41;10;10;
49708;PMS5003;35601;55.902;13.606;2024-01-11T04:31:08;18;11;
49708;PMS5003;35601;55.902;13.606;2024-01-11T04:33:32;10;10;
49708;PMS5003;35601;55.902;13.606;2024-01-11T04:35:57;16;12;
49708;PMS5003;35601;55.902;13.606;2024-01-11T04:38:23;11;8;
49708;PMS5003;35601;55.902;13.606;2024-01-11T04:40:48;11;10;
49708;PMS5003;35601;55.902;13.606;2024-01-11T04:43:14;6;6;
49708;PMS5003;35601;55.902;13.606;2024-01-11T04:45:39;11;9;
49708;PMS5003;35601;55.902;13.606;2024-01-11T04:48:05;10;10;
49708;PMS5003;35601;55.902;13.606;2024-01-11T04:50:30;9;9;
49708;PMS5003;35601;55.902;13.606;2024-01-11T04:52:56;16;9;
49708;PMS5003;35601;55.902;13.606;2024-01-11T04:55:21;12;9;
49708;PMS5003;35601;55.902;13.606;2024-01-11T04:57:47;26;24;
49708;PMS5003;35601;55.902;13.606;2024-01-11T05:00:12;12;11;
49708;PMS5003;35601;55.902;13.606;2024-01-11T05:02:37;19;14;
49708;PMS5003;35601;55.902;13.606;2024-01-11T05:05:03;10;10;
49708;PMS5003;35601;55.902;13.606;2024-01-11T05:07:28;16;9;
49708;PMS5003;35601;55.902;13.606;2024-01-11T05:09:54;14;12;
49708;PMS5003;35601;55.902;13.606;2024-01-11T05:12:19;23;14;
49708;PMS5003;35601;55.902;13.606;2024-01-11T05:14:44;10;9;
49708;PMS5003;35601;55.902;13.606;2024-01-11T05:17:10;15;12;
49708;PMS5003;35601;55.902;13.606;2024-01-11T05:19:36;13;12;
49708;PMS5003;35601;55.902;13.606;2024-01-11T05:22:01;12;10;
49708;PMS5003;35601;55.902;13.606;2024-01-11T05:24:27;19;17;
49708;PMS5003;35601;55.902;13.606;2024-01-11T05:26:52;15;13;
49708;PMS5003;35601;55.902;13.606;2024-01-11T05:29:17;15;11;
49708;PMS5003;35601;55.902;13.606;2024-01-11T05:31:42;12;11;
49708;PMS5003;35601;55.902;13.606;2024-01-11T05:34:08;16;12;
49708;PMS5003;35601;55.902;13.606;2024-01-11T05:36:33;16;10;
49708;PMS5003;35601;55.902;13.606;2024-01-11T05:38:58;18;11;
49708;PMS5003;35601;55.902;13.606;2024-01-11T05:41:23;18;14;
49708;PMS5003;35601;55.902;13.606;2024-01-11T05:43:49;11;11;
49708;PMS5003;35601;55.902;13.606;2024-01-11T05:46:14;15;14;
49708;PMS5003;35601;55.902;13.606;2024-01-11T05:48:40;12;12;
49708;PMS5003;35601;55.902;13.606;2024-01-11T05:51:05;13;11;
49708;PMS5003;35601;55.902;13.606;2024-01-11T05:53:30;12;12;
49708;PMS5003;35601;55.902;13.606;2024-01-11T05:55:56;15;11;
49708;PMS5003;35601;55.902;13.606;2024-01-11T05:58:21;21;14;
49708;PMS5003;35601;55.902;13.606;2024-01-11T06:00:46;16;10;
49708;PMS5003;35601;55.902;13.606;2024-01-11T06:03:11;12;11;
49708;PMS5003;35601;55.902;13.606;2024-01-11T06:05:37;10;10;
49708;PMS5003;35601;55.902;13.606;2024-01-11T06:08:02;16;11;
49708;PMS5003;35601;55.902;13.606;2024-01-11T06:10:28;12;12;
49708;PMS5003;35601;55.902;13.606;2024-01-11T06:12:53;15;12;
49708;PMS5003;35601;55.902;13.606;2024-01-11T06:15:18;11;11;
49708;PMS5003;35601;55.902;13.606;2024-01-11T06:17:43;12;10;
49708;PMS5003;35601;55.902;13.606;2024-01-11T06:20:09;15;14;
49708;PMS5003;35601;55.902;13.606;2024-01-11T06:22:34;12;9;
49708;PMS5003;35601;55.902;13.606;2024-01-11T06:24:59;16;11;
49708;PMS5003;35601;55.902;13.606;2024-01-11T06:27:25;15;10;
49708;PMS5003;35601;55.902;13.606;2024-01-11T06:29:50;11;10;
49708;PMS5003;35601;55.902;13.606;2024-01-11T06:32:16;14;12;
49708;PMS5003;35601;55.902;13.606;2024-01-11T06:34:41;10;9;
49708;PMS5003;35601;55.902;13.606;2024-01-11T06:37:07;17;12;
49708;PMS5003;35601;55.902;13.606;2024-01-11T06:39:31;12;12;
49708;PMS5003;35601;55.902;13.606;2024-01-11T06:41:57;12;11;
49708;PMS5003;35601;55.902;13.606;2024-01-11T06:44:22;14;10;
49708;PMS5003;35601;55.902;13.606;2024-01-11T06:46:48;18;11;
49708;PMS5003;35601;55.902;13.606;2024-01-11T06:49:13;11;11;
49708;PMS5003;35601;55.902;13.606;2024-01-11T06:51:39;33;32;
49708;PMS5003;35601;55.902;13.606;2024-01-11T06:54:04;54;50;
49708;PMS5003;35601;55.902;13.606;2024-01-11T06:56:29;21;19;
49708;PMS5003;35601;55.902;13.606;2024-01-11T06:58:54;13;12;
49708;PMS5003;35601;55.902;13.606;2024-01-11T07:01:19;13;12;
49708;PMS5003;35601;55.902;13.606;2024-01-11T07:03:45;15;11;
49708;PMS5003;35601;55.902;13.606;2024-01-11T07:06:10;11;11;
49708;PMS5003;35601;55.902;13.606;2024-01-11T07:08:35;15;11;
49708;PMS5003;35601;55.902;13.606;2024-01-11T07:11:01;16;12;
49708;PMS5003;35601;55.902;13.606;2024-01-11T07:13:26;18;15;
49708;PMS5003;35601;55.902;13.606;2024-01-11T07:15:51;11;11;
49708;PMS5003;35601;55.902;13.606;2024-01-11T07:18:16;31;28;
49708;PMS5003;35601;55.902;13.606;2024-01-11T07:20:42;14;11;
49708;PMS5003;35601;55.902;13.606;2024-01-11T07:23:07;14;12;
49708;PMS5003;35601;55.902;13.606;2024-01-11T07:25:32;22;16;
49708;PMS5003;35601;55.902;13.606;2024-01-11T07:27:58;18;14;
49708;PMS5003;35601;55.902;13.606;2024-01-11T07:30:23;17;14;
49708;PMS5003;35601;55.902;13.606;2024-01-11T07:32:49;11;10;
49708;PMS5003;35601;55.902;13.606;2024-01-11T07:35:14;12;10;
49708;PMS5003;35601;55.902;13.606;2024-01-11T07:37:40;12;10;
49708;PMS5003;35601;55.902;13.606;2024-01-11T07:40:05;15;10;
49708;PMS5003;35601;55.902;13.606;2024-01-11T07:42:30;14;14;
49708;PMS5003;35601;55.902;13.606;2024-01-11T07:44:55;14;14;
49708;PMS5003;35601;55.902;13.606;2024-01-11T07:47:21;16;12;
49708;PMS5003;35601;55.902;13.606;2024-01-11T07:49:47;15;14;
49708;PMS5003;35601;55.902;13.606;2024-01-11T07:52:12;23;18;
49708;PMS5003;35601;55.902;13.606;2024-01-11T07:54:37;15;11;
49708;PMS5003;35601;55.902;13.606;2024-01-11T07:57:03;12;11;
49708;PMS5003;35601;55.902;13.606;2024-01-11T07:59:28;17;15;
49708;PMS5003;35601;55.902;13.606;2024-01-11T08:01:54;18;12;
49708;PMS5003;35601;55.902;13.606;2024-01-11T08:04:19;17;12;
49708;PMS5003;35601;55.902;13.606;2024-01-11T08:06:44;12;9;
49708;PMS5003;35601;55.902;13.606;2024-01-11T08:09:09;12;11;
49708;PMS5003;35601;55.902;13.606;2024-01-11T08:11:35;17;16;
49708;PMS5003;35601;55.902;13.606;2024-01-11T08:14:00;22;14;
49708;PMS5003;35601;55.902;13.606;2024-01-11T08:16:26;15;11;
49708;PMS5003;35601;55.902;13.606;2024-01-11T08:18:51;21;17;
49708;PMS5003;35601;55.902;13.606;2024-01-11T08:21:17;14;11;
49708;PMS5003;35601;55.902;13.606;2024-01-11T08:23:42;15;12;
49708;PMS5003;35601;55.902;13.606;2024-01-11T08:26:08;12;12;
49708;PMS5003;35601;55.902;13.606;2024-01-11T08:28:33;9;9;
49708;PMS5003;35601;55.902;13.606;2024-01-11T08:30:59;15;12;
49708;PMS5003;35601;55.902;13.606;2024-01-11T08:33:24;12;11;
49708;PMS5003;35601;55.902;13.606;2024-01-11T08:35:50;16;15;
49708;PMS5003;35601;55.902;13.606;2024-01-11T08:38:16;19;19;
49708;PMS5003;35601;55.902;13.606;2024-01-11T08:40:41;14;14;
49708;PMS5003;35601;55.902;13.606;2024-01-11T08:43:06;17;15;
49708;PMS5003;35601;55.902;13.606;2024-01-11T08:45:32;15;14;
49708;PMS5003;35601;55.902;13.606;2024-01-11T08:47:57;18;14;
49708;PMS5003;35601;55.902;13.606;2024-01-11T08:50:23;11;10;
49708;PMS5003;35601;55.902;13.606;2024-01-11T08:52:49;22;18;
49708;PMS5003;35601;55.902;13.606;2024-01-11T08:55:14;28;23;
49708;PMS5003;35601;55.902;13.606;2024-01-11T08:57:40;22;17;
49708;PMS5003;35601;55.902;13.606;2024-01-11T09:00:05;17;17;
49708;PMS5003;35601;55.902;13.606;2024-01-11T09:02:30;18;16;
49708;PMS5003;35601;55.902;13.606;2024-01-11T09:04:56;16;16;
49708;PMS5003;35601;55.902;13.606;2024-01-11T09:07:22;17;12;
49708;PMS5003;35601;55.902;13.606;2024-01-11T09:09:47;13;12;
49708;PMS5003;35601;55.902;13.606;2024-01-11T09:12:13;11;10;
49708;PMS5003;35601;55.902;13.606;2024-01-11T09:14:38;16;11;
49708;PMS5003;35601;55.902;13.606;2024-01-11T09:17:03;12;11;
49708;PMS5003;35601;55.902;13.606;2024-01-11T09:19:28;19;16;
49708;PMS5003;35601;55.902;13.606;2024-01-11T09:21:54;11;11;
49708;PMS5003;35601;55.902;13.606;2024-01-11T09:24:19;17;13;
49708;PMS5003;35601;55.902;13.606;2024-01-11T09:26:44;15;13;
49708;PMS5003;35601;55.902;13.606;2024-01-11T09:29:09;19;16;
49708;PMS5003;35601;55.902;13.606;2024-01-11T09:31:35;16;13;
49708;PMS5003;35601;55.902;13.606;2024-01-11T09:34:00;15;12;
49708;PMS5003;35601;55.902;13.606;2024-01-11T09:36:25;20;13;
49708;PMS5003;35601;55.902;13.606;2024-01-11T09:38:50;11;11;
49708;PMS5003;35601;55.902;13.606;2024-01-11T09:41:15;18;13;
49708;PMS5003;35601;55.902;13.606;2024-01-11T09:43:41;16;12;
49708;PMS5003;35601;55.902;13.606;2024-01-11T09:46:06;16;10;
49708;PMS5003;35601;55.902;13.606;2024-01-11T09:48:32;20;13;
49708;PMS5003;35601;55.902;13.606;2024-01-11T09:50:57;10;10;
49708;PMS5003;35601;55.902;13.606;2024-01-11T09:53:22;13;12;
49708;PMS5003;35601;55.902;13.606;2024-01-11T09:55:48;19;14;
49708;PMS5003;35601;55.902;13.606;2024-01-11T09:58:13;18;13;
49708;PMS5003;35601;55.902;13.606;2024-01-11T10:00:39;14;12;
49708;PMS5003;35601;55.902;13.606;2024-01-11T10:03:04;21;16;
49708;PMS5003;35601;55.902;13.606;2024-01-11T10:05:29;18;15;
49708;PMS5003;35601;55.902;13.606;2024-01-11T10:07:55;13;13;
49708;PMS5003;35601;55.902;13.606;2024-01-11T10:10:20;10;10;
49708;PMS5003;35601;55.902;13.606;2024-01-11T10:12:46;15;13;
49708;PMS5003;35601;55.902;13.606;2024-01-11T10:15:12;18;14;
49708;PMS5003;35601;55.902;13.606;2024-01-11T10:17:36;14;14;
49708;PMS5003;35601;55.902;13.606;2024-01-11T10:20:01;12;11;
49708;PMS5003;35601;55.902;13.606;2024-01-11T10:22:26;10;9;
49708;PMS5003;35601;55.902;13.606;2024-01-11T10:24:54;10;8;
49708;PMS5003;35601;55.902;13.606;2024-01-11T10:27:17;16;14;
49708;PMS5003;35601;55.902;13.606;2024-01-11T10:29:42;13;10;
49708;PMS5003;35601;55.902;13.606;2024-01-11T10:32:08;15;12;
49708;PMS5003;35601;55.902;13.606;2024-01-11T10:34:33;17;13;
49708;PMS5003;35601;55.902;13.606;2024-01-11T10:36:58;11;10;
49708;PMS5003;35601;55.902;13.606;2024-01-11T10:39:23;16;12;
49708;PMS5003;35601;55.902;13.606;2024-01-11T10:41:50;15;12;
49708;PMS5003;35601;55.902;13.606;2024-01-11T10:44:16;11;11;
49708;PMS5003;35601;55.902;13.606;2024-01-11T10:46:39;17;12;
49708;PMS5003;35601;55.902;13.606;2024-01-11T10:49:04;14;11;
49708;PMS5003;35601;55.902;13.606;2024-01-11T10:51:30;17;13;
49708;PMS5003;35601;55.902;13.606;2024-01-11T10:53:55;16;11;
49708;PMS5003;35601;55.902;13.606;2024-01-11T10:56:20;14;12;
49708;PMS5003;35601;55.902;13.606;2024-01-11T10:58:46;13;11;
49708;PMS5003;35601;55.902;13.606;2024-01-11T11:01:11;15;12;
49708;PMS5003;35601;55.902;13.606;2024-01-11T11:03:36;13;11;
49708;PMS5003;35601;55.902;13.606;2024-01-11T11:06:02;13;11;
49708;PMS5003;35601;55.902;13.606;2024-01-11T11:08:26;17;13;
49708;PMS5003;35601;55.902;13.606;2024-01-11T11:10:54;18;18;
49708;PMS5003;35601;55.902;13.606;2024-01-11T11:13:17;24;16;
49708;PMS5003;35601;55.902;13.606;2024-01-11T11:15:44;12;8;
49708;PMS5003;35601;55.902;13.606;2024-01-11T11:18:07;14;11;
49708;PMS5003;35601;55.902;13.606;2024-01-11T11:20:33;11;11;
49708;PMS5003;35601;55.902;13.606;2024-01-11T11:23:04;17;14;
49708;PMS5003;35601;55.902;13.606;2024-01-11T11:25:24;15;14;
49708;PMS5003;35601;55.902;13.606;2024-01-11T11:27:49;19;16;
49708;PMS5003;35601;55.902;13.606;2024-01-11T11:30:14;13;9;
49708;PMS5003;35601;55.902;13.606;2024-01-11T11:32:43;14;10;
49708;PMS5003;35601;55.902;13.606;2024-01-11T11:35:05;15;12;
49708;PMS5003;35601;55.902;13.606;2024-01-11T11:37:30;9;9;
49708;PMS5003;35601;55.902;13.606;2024-01-11T11:39:56;13;12;
49708;PMS5003;35601;55.902;13.606;2024-01-11T11:42:21;15;12;
49708;PMS5003;35601;55.902;13.606;2024-01-11T11:44:47;14;11;
49708;PMS5003;35601;55.902;13.606;2024-01-11T11:47:18;19;11;
49708;PMS5003;35601;55.902;13.606;2024-01-11T11:52:02;13;13;
49708;PMS5003;35601;55.902;13.606;2024-01-11T11:54:27;10;9;
49708;PMS5003;35601;55.902;13.606;2024-01-11T11:56:53;14;10;
49708;PMS5003;35601;55.902;13.606;2024-01-11T11:59:18;8;8;
49708;PMS5003;35601;55.902;13.606;2024-01-11T12:01:44;13;13;
49708;PMS5003;35601;55.902;13.606;2024-01-11T12:04:09;8;8;
49708;PMS5003;35601;55.902;13.606;2024-01-11T12:06:34;12;10;
49708;PMS5003;35601;55.902;13.606;2024-01-11T12:09:00;8;8;
49708;PMS5003;35601;55.902;13.606;2024-01-11T12:11:26;11;10;
49708;PMS5003;35601;55.902;13.606;2024-01-11T12:13:51;12;11;
49708;PMS5003;35601;55.902;13.606;2024-01-11T12:16:16;13;9;
49708;PMS5003;35601;55.902;13.606;2024-01-11T12:18:42;19;16;
49708;PMS5003;35601;55.902;13.606;2024-01-11T12:21:07;13;11;
49708;PMS5003;35601;55.902;13.606;2024-01-11T12:23:32;14;10;
49708;PMS5003;35601;55.902;13.606;2024-01-11T12:25:58;10;9;
49708;PMS5003;35601;55.902;13.606;2024-01-11T12:28:23;10;10;
49708;PMS5003;35601;55.902;13.606;2024-01-11T12:30:48;14;12;
49708;PMS5003;35601;55.902;13.606;2024-01-11T12:33:14;10;10;
49708;PMS5003;35601;55.902;13.606;2024-01-11T12:35:39;11;11;
49708;PMS5003;35601;55.902;13.606;2024-01-11T12:38:05;20;15;
49708;PMS5003;35601;55.902;13.606;2024-01-11T12:40:31;12;12;
49708;PMS5003;35601;55.902;13.606;2024-01-11T12:42:56;12;11;
49708;PMS5003;35601;55.902;13.606;2024-01-11T12:45:21;15;13;
49708;PMS5003;35601;55.902;13.606;2024-01-11T12:47:46;18;15;
49708;PMS5003;35601;55.902;13.606;2024-01-11T12:50:12;12;12;
49708;PMS5003;35601;55.902;13.606;2024-01-11T12:52:36;12;11;
49708;PMS5003;35601;55.902;13.606;2024-01-11T12:55:02;16;13;
49708;PMS5003;35601;55.902;13.606;2024-01-11T12:57:27;14;14;
49708;PMS5003;35601;55.902;13.606;2024-01-11T12:59:53;14;13;
49708;PMS5003;35601;55.902;13.606;2024-01-11T13:02:19;15;12;
49708;PMS5003;35601;55.902;13.606;2024-01-11T13:04:44;13;10;
49708;PMS5003;35601;55.902;13.606;2024-01-11T13:07:09;16;13;
49708;PMS5003;35601;55.902;13.606;2024-01-11T13:09:34;14;14;
49708;PMS5003;35601;55.902;13.606;2024-01-11T13:11:59;18;14;
49708;PMS5003;35601;55.902;13.606;2024-01-11T13:14:25;13;12;
49708;PMS5003;35601;55.902;13.606;2024-01-11T13:16:50;15;12;
49708;PMS5003;35601;55.902;13.606;2024-01-11T13:19:16;20;17;
49708;PMS5003;35601;55.902;13.606;2024-01-11T13:21:41;17;16;
49708;PMS5003;35601;55.902;13.606;2024-01-11T13:24:06;13;12;
49708;PMS5003;35601;55.902;13.606;2024-01-11T13:26:32;17;12;
49708;PMS5003;35601;55.902;13.606;2024-01-11T13:28:57;15;14;
49708;PMS5003;35601;55.902;13.606;2024-01-11T13:31:22;16;15;
49708;PMS5003;35601;55.902;13.606;2024-01-11T13:33:48;14;13;
49708;PMS5003;35601;55.902;13.606;2024-01-11T13:36:13;16;14;
49708;PMS5003;35601;55.902;13.606;2024-01-11T13:38:39;14;14;
49708;PMS5003;35601;55.902;13.606;2024-01-11T13:41:04;15;14;
49708;PMS5003;35601;55.902;13.606;2024-01-11T13:43:30;12;11;
49708;PMS5003;35601;55.902;13.606;2024-01-11T13:45:55;14;14;
49708;PMS5003;35601;55.902;13.606;2024-01-11T13:48:21;13;12;
49708;PMS5003;35601;55.902;13.606;2024-01-11T13:50:46;16;13;
49708;PMS5003;35601;55.902;13.606;2024-01-11T13:53:11;22;16;
49708;PMS5003;35601;55.902;13.606;2024-01-11T13:55:36;13;12;
49708;PMS5003;35601;55.902;13.606;2024-01-11T13:58:01;15;14;
49708;PMS5003;35601;55.902;13.606;2024-01-11T14:00:27;13;13;
49708;PMS5003;35601;55.902;13.606;2024-01-11T14:02:52;15;14;
49708;PMS5003;35601;55.902;13.606;2024-01-11T14:05:17;16;14;
49708;PMS5003;35601;55.902;13.606;2024-01-11T14:07:43;16;13;
49708;PMS5003;35601;55.902;13.606;2024-01-11T14:10:08;16;16;
49708;PMS5003;35601;55.902;13.606;2024-01-11T14:12:33;15;13;
49708;PMS5003;35601;55.902;13.606;2024-01-11T14:14:58;22;17;
49708;PMS5003;35601;55.902;13.606;2024-01-11T14:17:23;20;16;
49708;PMS5003;35601;55.902;13.606;2024-01-11T14:19:49;20;15;
49708;PMS5003;35601;55.902;13.606;2024-01-11T14:22:14;33;24;
49708;PMS5003;35601;55.902;13.606;2024-01-11T14:24:39;32;28;
49708;PMS5003;35601;55.902;13.606;2024-01-11T14:27:05;33;27;
49708;PMS5003;35601;55.902;13.606;2024-01-11T14:29:31;13;13;
49708;PMS5003;35601;55.902;13.606;2024-01-11T14:31:56;18;14;
49708;PMS5003;35601;55.902;13.606;2024-01-11T14:34:21;11;11;
49708;PMS5003;35601;55.902;13.606;2024-01-11T14:36:47;13;12;
49708;PMS5003;35601;55.902;13.606;2024-01-11T14:39:12;10;10;
49708;PMS5003;35601;55.902;13.606;2024-01-11T14:41:38;12;11;
49708;PMS5003;35601;55.902;13.606;2024-01-11T14:44:03;15;11;
49708;PMS5003;35601;55.902;13.606;2024-01-11T14:46:28;10;10;
49708;PMS5003;35601;55.902;13.606;2024-01-11T14:48:53;12;7;
49708;PMS5003;35601;55.902;13.606;2024-01-11T14:51:19;20;15;
49708;PMS5003;35601;55.902;13.606;2024-01-11T14:53:44;22;17;
49708;PMS5003;35601;55.902;13.606;2024-01-11T14:56:10;26;21;
49708;PMS5003;35601;55.902;13.606;2024-01-11T14:58:35;32;23;
49708;PMS5003;35601;55.902;13.606;2024-01-11T15:01:00;19;16;
49708;PMS5003;35601;55.902;13.606;2024-01-11T15:03:25;23;16;
49708;PMS5003;35601;55.902;13.606;2024-01-11T15:05:51;17;11;
49708;PMS5003;35601;55.902;13.606;2024-01-11T15:08:16;25;22;
49708;PMS5003;35601;55.902;13.606;2024-01-11T15:10:42;29;24;
49708;PMS5003;35601;55.902;13.606;2024-01-11T15:13:08;15;15;
49708;PMS5003;35601;55.902;13.606;2024-01-11T15:15:33;10;10;
49708;PMS5003;35601;55.902;13.606;2024-01-11T15:17:58;12;10;
49708;PMS5003;35601;55.902;13.606;2024-01-11T15:20:23;12;12;
49708;PMS5003;35601;55.902;13.606;2024-01-11T15:22:49;19;15;
49708;PMS5003;35601;55.902;13.606;2024-01-11T15:25:14;13;10;
49708;PMS5003;35601;55.902;13.606;2024-01-11T15:27:40;14;12;
49708;PMS5003;35601;55.902;13.606;2024-01-11T15:30:05;14;13;
49708;PMS5003;35601;55.902;13.606;2024-01-11T15:32:30;14;14;
49708;PMS5003;35601;55.902;13.606;2024-01-11T15:34:56;15;15;
49708;PMS5003;35601;55.902;13.606;2024-01-11T15:37:21;16;13;
49708;PMS5003;35601;55.902;13.606;2024-01-11T15:39:47;14;11;
49708;PMS5003;35601;55.902;13.606;2024-01-11T15:42:12;10;10;
49708;PMS5003;35601;55.902;13.606;2024-01-11T15:44:38;12;9;
49708;PMS5003;35601;55.902;13.606;2024-01-11T15:47:03;9;6;
49708;PMS5003;35601;55.902;13.606;2024-01-11T15:49:28;6;6;
49708;PMS5003;35601;55.902;13.606;2024-01-11T15:51:54;5;5;
49708;PMS5003;35601;55.902;13.606;2024-01-11T15:54:19;6;6;
49708;PMS5003;35601;55.902;13.606;2024-01-11T15:56:44;11;10;